Volk Field Camp Douglas US
ICAO: KVOK
IATA: VOK
Category: Medium
Scheduled Services: No

Elevation: 912 ft
TransAlt. 18000 ft.

Airport Communications:
APP/DEP:135.25
CTAF:127.5
GND:121.9
HARDWOOD RANGE:132.025
SHEBOYGAN RANGE:26.04
PTD:37.22
TWR:127.5

KVOK Zoom In..

If you have problems with the map follow the link
https://www.worldairports.se/pages/airport.php?
ICAO=KVOK

Runways:

(A) RW 09 length 9000 ft width 150 ft
---- / hdg 89

(B) RW 27 length 9000 ft width 150 ft
ILS 108.50 / hdg 269

Location; KVOK
Day. 25 / Time. 08.56 Zulu
* Altimeter: 29.79
* Temperature: 01° c. 33.8°f.
* Wind from: 300° Speed 06 kn.
Dewpoint: 01° c.
Visibility: 10 Statute Miles.
Clouds: Overcast 700 ft.
Conditions: Light Snow.

KVOK 250856Z AUTO 30006KT 10SM -SN OVC007 01/01 A2979 RMK AO2 RAE54SNB54 SLP100 P0000 60000 T00060006 56008


Wind From 300°
Speed 06 kn.

 
 
jpsmedia worldairports.se 2020   terms of use